Latest Weather Observations for Port Hedland

IDW60801

Issued at 5:02 pm WST Saturday 13 February 2016 (issued every 30 minutes, with the page automatically refreshed every 10 minutes)

About weather observations | Map of weather stations | Latest weather observations for WA | Other Formats
Station Details ID: 004032 Name: PORT HEDLAND AIRPORT Lat: -20.37 Lon: 118.63 Height: 6.4 m
Data from the previous 72 hours. | See also: Recent months at Port Hedland
Date/Time
WST
Temp
°C
App
Temp
°C
Dew
Point
Rel
Hum
%
Delta-T
°C
Wind Press
QNH
hPa
Press
MSL
hPa
Rain
since 9 am
mm
Dir
 
Spd
km/h
Gust
km/h
Spd
kts
Gust
kts
13/05:00pm 32.3 34.5 26.0 69 4.5 NW 26 33 14 18 1007.1 - 0.0
13/04:30pm 32.1 33.4 25.8 69 4.5 NW 30 35 16 19 1006.6 - 0.0
13/04:00pm 33.0 34.5 25.6 65 5.3 NW 28 35 15 19 1006.8 - 0.0
13/03:30pm 33.3 34.2 25.3 63 5.7 NW 30 39 16 21 1007.0 - 0.0
13/03:00pm 33.1 33.9 25.1 63 5.7 NW 30 37 16 20 1007.1 1007.0 0.0
13/02:30pm 33.8 35.3 25.5 62 5.9 NW 28 35 15 19 1007.5 - 0.0
13/02:00pm 33.8 35.1 25.2 60 6.1 NNW 28 37 15 20 1007.7 - 0.0
13/01:30pm 33.9 34.8 25.3 60 6.1 NW 30 37 16 20 1007.9 - 0.0
13/01:00pm 34.2 35.7 24.9 58 6.6 NW 26 35 14 19 1008.1 - 0.0
13/12:30pm 34.2 35.9 24.7 57 6.7 NNW 24 33 13 18 1008.3 - 0.0
13/12:00pm 33.5 35.5 25.2 62 5.9 WNW 24 30 13 16 1008.2 1008.1 0.0
13/11:30am 34.3 36.5 25.5 60 6.3 NW 24 32 13 17 1008.6 - 0.0
13/11:00am 32.9 34.8 25.6 65 5.2 N 26 30 14 16 1009.1 - 0.0
13/10:30am 32.9 35.7 25.8 66 5.1 NW 22 30 12 16 1009.0 - 0.0
13/10:00am 31.9 34.8 25.9 70 4.3 NNW 22 32 12 17 1009.2 - 0.0
13/09:30am 31.4 34.4 26.1 73 3.8 N 22 33 12 18 1009.2 - 0.0
13/09:00am 32.0 34.9 26.0 70 4.3 NNW 22 28 12 15 1009.2 1009.1 0.0
13/08:49am 31.9 34.9 26.2 72 4.1 N 22 28 12 15 1009.1 - 0.0
13/08:30am 30.5 33.4 25.9 76 3.3 N 22 30 12 16 1009.4 - 0.0
13/08:00am 30.6 33.8 26.4 78 3.0 N 22 26 12 14 1009.4 - 0.0
13/07:47am 30.3 34.3 26.7 81 2.6 N 19 24 10 13 1009.5 - 0.0
13/07:30am 30.4 35.1 27.2 83 2.3 N 17 20 9 11 1009.0 - 0.0
13/07:00am 29.7 34.2 27.5 88 1.6 N 19 28 10 15 1008.4 - 0.0
13/06:30am 28.1 34.2 27.0 94 0.8 NNE 9 17 5 9 1008.7 - 0.0
13/06:00am 27.4 33.6 26.6 95 0.6 S 7 9 4 5 1008.1 1008.0 0.0
13/05:30am 26.5 32.4 25.9 96 0.4 SSE 6 13 3 7 1007.3 - 0.0
13/05:00am 27.7 34.1 26.6 94 0.8 N 6 7 3 4 1007.1 - 0.0
13/04:46am 28.0 33.5 26.7 93 0.9 ENE 11 22 6 12 1007.3 - 0.0
13/04:30am 26.4 32.0 25.8 96 0.4 SE 7 17 4 9 1007.0 - 0.0
13/04:00am 27.4 33.1 27.0 98 0.3 W 11 13 6 7 1006.5 - 0.0
13/03:34am 27.1 33.4 26.5 96 0.4 WNW 6 11 3 6 1006.4 - 0.0
13/03:30am 27.3 34.1 26.7 96 0.4 W 4 9 2 5 1006.5 - 0.0
13/03:00am 27.7 34.1 27.0 96 0.5 NNW 7 11 4 6 1006.6 1006.5 0.0
13/02:30am 27.5 32.3 26.8 96 0.5 WSW 15 19 8 10 1006.3 - 0.0
13/02:00am 27.6 33.5 26.8 95 0.6 WSW 9 13 5 7 1006.6 - 0.0
13/01:30am 27.9 33.3 27.1 95 0.6 WSW 13 15 7 8 1006.9 - 0.0
13/01:00am 28.5 34.8 27.4 94 0.8 W 9 15 5 8 1007.1 - 0.0
13/12:30am 27.9 33.4 26.8 94 0.8 NW 11 13 6 7 1007.4 - 0.0
13/12:00am 28.4 34.1 27.0 92 1.0 W 11 13 6 7 1007.3 1007.2 0.0
 
Date/Time
WST
Temp
°C
App
Temp
°C
Dew
Point
Rel
Hum
%
Delta-T
°C
Wind Press
QNH
hPa
Press
MSL
hPa
Rain
since 9 am
mm
Dir
 
Spd
km/h
Gust
km/h
Spd
kts
Gust
kts
12/11:44pm 28.6 34.6 26.9 90 1.2 W 9 13 5 7 1007.7 - 0.0
12/11:32pm 28.8 35.2 27.0 90 1.3 SW 7 11 4 6 1008.0 - 0.0
12/11:30pm 28.7 35.1 26.9 90 1.3 SW 7 11 4 6 1008.0 - 0.0
12/11:00pm 28.7 34.3 26.3 87 1.7 W 9 15 5 8 1007.6 - 0.0
12/10:30pm 29.0 32.9 26.0 84 2.1 W 17 20 9 11 1007.6 - 0.0
12/10:00pm 28.2 31.7 25.4 85 2.0 WNW 17 19 9 10 1007.5 - 0.0
12/09:30pm 28.8 33.9 25.5 82 2.3 NW 9 11 5 6 1007.6 - 0.0
12/09:00pm 29.5 34.6 25.5 79 2.8 NW 9 11 5 6 1007.3 1007.2 0.0
12/08:30pm 29.9 34.1 24.8 74 3.6 WNW 11 13 6 7 1007.1 - 0.0
12/08:00pm 30.8 35.2 25.1 71 4.0 W 11 15 6 8 1007.0 - 0.0
12/07:30pm 31.3 35.6 24.9 69 4.5 WNW 11 13 6 7 1006.7 - 0.0
12/07:00pm 32.0 35.1 24.1 63 5.5 WNW 15 20 8 11 1006.1 - 0.0
12/06:30pm 32.9 34.9 23.6 58 6.5 WNW 19 26 10 14 1005.5 - 0.0
12/06:00pm 34.7 35.9 22.2 48 8.6 WNW 19 24 10 13 1005.3 1005.2 0.0
12/05:30pm 35.5 35.3 21.2 43 9.7 NNW 24 30 13 16 1004.6 - 0.0
12/05:00pm 35.9 35.7 19.7 38 10.8 NNW 20 28 11 15 1004.6 - 0.0
12/04:30pm 36.7 36.0 20.2 38 11.1 N 24 30 13 16 1004.5 - 0.0
12/04:00pm 37.5 35.9 20.0 36 11.7 N 28 35 15 19 1004.4 - 0.0
12/03:30pm 37.7 36.0 20.6 37 11.6 N 30 37 16 20 1004.4 - 0.0
12/03:00pm 37.9 36.0 19.3 33 12.4 N 28 33 15 18 1004.6 1004.5 0.0
12/02:30pm 37.6 35.9 19.9 35 11.9 N 28 37 15 20 1004.9 - 0.0
12/02:00pm 37.3 35.7 20.8 38 11.2 N 30 35 16 19 1005.3 - 0.0
12/01:30pm 38.7 37.0 19.0 31 13.1 N 26 32 14 17 1005.6 - 0.0
12/01:00pm 37.3 36.8 20.8 38 11.2 N 24 30 13 16 1006.0 - 0.0
12/12:30pm 38.5 38.9 21.8 38 11.5 N 22 26 12 14 1006.5 - 0.0
12/12:00pm 37.9 35.4 16.2 27 13.9 N 24 28 13 15 1006.8 1006.7 0.0
12/11:30am 39.0 36.7 17.6 28 14.0 N 26 32 14 17 1007.0 - 0.0
12/11:00am 39.4 35.8 15.3 24 15.3 NNE 28 35 15 19 1007.2 - 0.0
12/10:30am 40.3 37.3 12.6 19 17.0 NNE 20 26 11 14 1007.4 - 0.0
12/10:00am 41.7 36.3 6.3 12 20.0 ENE 24 33 13 18 1007.6 - 0.0
12/09:30am 42.2 35.1 1.5 8 21.5 E 28 35 15 19 1007.8 - 0.0
12/09:00am 41.4 34.2 0.5 8 21.2 ESE 28 37 15 20 1007.9 1007.8 0.0
12/08:30am 39.9 32.6 0.2 8 20.3 ESE 28 35 15 19 1007.8 - 0.0
12/08:00am 39.1 33.7 2.5 10 19.3 ESE 20 24 11 13 1007.7 - 0.0
12/07:30am 35.4 32.1 6.5 17 15.9 SSE 13 20 7 11 1007.6 - 0.0
12/07:00am 31.5 29.0 8.0 23 13.0 S 11 17 6 9 1007.5 - 0.0
12/06:30am 28.7 25.4 8.2 27 11.2 S 15 17 8 9 1007.4 - 0.0
12/06:00am 28.2 25.8 10.1 32 10.2 S 13 15 7 8 1007.3 1007.2 0.0
12/05:30am 27.7 25.4 10.5 34 9.7 SSW 13 15 7 8 1007.0 - 0.0
12/05:00am 28.3 26.5 10.7 33 10.0 S 11 13 6 7 1006.9 - 0.0
12/04:30am 27.6 25.6 11.4 36 9.3 S 13 13 7 7 1006.7 - 0.0
12/04:00am 27.4 26.5 12.5 39 8.7 S 9 11 5 6 1006.6 - 0.0
12/03:30am 27.5 26.8 13.1 41 8.5 S 9 13 5 7 1006.5 - 0.0
12/03:00am 28.3 27.3 13.5 40 8.8 S 11 13 6 7 1006.4 1006.3 0.0
12/02:30am 28.0 28.3 15.0 45 7.9 S 7 13 4 7 1006.7 - 0.0
12/02:00am 28.6 28.3 14.4 41 8.6 SSW 9 11 5 6 1006.7 - 0.0
12/01:30am 28.1 28.8 16.2 48 7.4 SSW 7 9 4 5 1006.9 - 0.0
12/01:00am 29.1 29.8 16.0 45 8.1 SSW 7 9 4 5 1007.2 - 0.0
12/12:30am 29.8 28.0 15.5 42 8.8 SSW 19 22 10 12 1007.6 - 0.0
12/12:00am 29.0 31.9 18.2 52 6.9 CALM 0 7 0 4 1007.7 1007.6 0.0
 
Date/Time
WST
Temp
°C
App
Temp
°C
Dew
Point
Rel
Hum
%
Delta-T
°C
Wind Press
QNH
hPa
Press
MSL
hPa
Rain
since 9 am
mm
Dir
 
Spd
km/h
Gust
km/h
Spd
kts
Gust
kts
11/11:30pm 28.7 28.4 17.3 50 7.2 W 15 17 8 9 1007.5 - 0.0
11/11:00pm 29.3 30.6 18.4 51 7.0 W 9 13 5 7 1007.8 - 0.0
11/10:30pm 29.8 30.4 18.5 50 7.3 WSW 13 13 7 7 1007.8 - 0.0
11/10:00pm 30.5 33.0 19.0 50 7.5 WSW 4 9 2 5 1008.0 - 0.0
11/09:30pm 30.8 32.3 18.8 48 7.8 WSW 9 13 5 7 1007.7 - 0.0
11/09:00pm 31.3 32.3 18.7 47 8.2 W 11 15 6 8 1007.5 1007.4 0.0
11/08:30pm 32.3 33.2 19.2 46 8.6 WSW 13 19 7 10 1007.3 - 0.0
11/08:00pm 33.1 33.8 19.6 45 8.9 W 15 17 8 9 1007.0 - 0.0
11/07:30pm 33.5 34.5 20.2 45 8.9 W 15 20 8 11 1006.7 - 0.0
11/07:00pm 33.9 34.5 21.0 47 8.7 W 19 20 10 11 1006.2 - 0.0
11/06:30pm 36.0 35.9 18.7 36 11.4 N 17 20 9 11 1005.5 - 0.0
11/06:00pm 38.0 36.1 15.2 26 14.4 N 19 24 10 13 1005.3 1005.2 0.0
11/05:30pm 39.1 36.5 13.7 22 15.7 N 20 26 11 14 1005.1 - 0.0
11/05:00pm 41.0 36.9 10.1 16 18.3 N 22 26 12 14 1004.8 - 0.0
11/04:30pm 40.4 37.9 14.1 21 16.5 N 20 26 11 14 1004.7 - 0.0
11/04:00pm 40.1 37.8 15.6 23 15.6 N 22 28 12 15 1004.7 - 0.0
11/03:30pm 40.2 36.8 14.8 22 16.0 N 26 32 14 17 1004.8 - 0.0
11/03:00pm 43.6 37.9 4.7 9 21.7 N 24 28 13 15 1004.8 1004.7 0.0
11/02:30pm 44.5 38.8 3.0 8 22.6 N 22 30 12 16 1004.9 - 0.0
11/02:00pm 43.6 38.5 4.3 9 21.7 N 20 26 11 14 1005.3 - 0.0
11/01:30pm 44.5 38.3 4.2 9 22.3 NNE 26 35 14 19 1005.7 - 0.0
11/01:17pm 44.9 38.0 2.8 8 22.9 N 28 46 15 25 1005.8 - 0.0
11/01:00pm 43.7 37.5 4.5 9 21.7 N 26 32 14 17 1006.0 - 0.0
11/12:30pm 43.1 37.9 7.1 11 20.7 N 24 32 13 17 1006.3 - 0.0
11/12:00pm 43.5 38.2 4.8 9 21.6 NNE 22 28 12 15 1006.7 1006.6 0.0
11/11:30am 43.4 38.8 8.2 12 20.5 NNE 22 26 12 14 1007.0 - 0.0
11/11:00am 43.6 38.1 3.8 9 21.8 NE 22 28 12 15 1007.3 - 0.0
11/10:30am 43.1 37.7 2.3 8 21.9 E 20 28 11 15 1007.6 - 0.0
11/10:00am 43.0 36.3 -1.0 6 22.5 E 24 35 13 19 1007.9 - 0.0
11/09:30am 42.1 35.7 -1.4 6 22.0 ESE 22 41 12 22 1008.2 - 0.0
11/09:00am 41.9 36.5 2.4 9 21.1 SE 20 28 11 15 1008.4 1008.3 0.0
11/08:30am 40.1 35.7 5.0 11 19.3 SSE 17 26 9 14 1008.5 - -
11/08:00am 37.3 34.7 9.3 18 16.2 SSE 13 17 7 9 1008.4 - -
11/07:30am 34.5 33.0 10.7 23 13.9 S 9 13 5 7 1008.2 - -
11/07:00am 30.8 28.9 11.8 31 11.1 S 13 15 7 8 1008.1 - -
11/06:30am 28.0 26.5 13.1 39 8.8 S 13 13 7 7 1007.7 - -
11/06:00am 26.6 26.6 13.6 44 7.7 S 6 11 3 6 1007.6 1007.5 -
11/05:30am 27.3 26.8 13.9 43 8.0 S 9 13 5 7 1007.5 - -
11/05:00am 28.1 27.1 13.4 40 8.7 S 11 13 6 7 1007.2 - -
11/04:30am 26.8 26.8 15.1 48 7.1 S 9 11 5 6 1007.0 - -
11/04:00am 26.7 26.8 15.6 50 6.8 S 9 13 5 7 1006.9 - -
11/03:30am 27.8 27.6 15.6 47 7.5 S 11 13 6 7 1006.9 - -
11/03:00am 28.7 28.2 14.9 43 8.4 S 11 15 6 8 1006.8 1006.7 -
11/02:30am 27.9 28.3 16.3 49 7.2 S 9 13 5 7 1006.6 - -
11/02:00am 28.0 28.4 17.2 52 6.8 S 11 15 6 8 1006.8 - -
11/01:30am 27.7 28.6 17.6 54 6.4 S 9 9 5 5 1006.9 - -
11/01:00am 28.0 29.1 17.9 54 6.4 S 9 11 5 6 1007.0 - -
11/12:30am 28.7 30.0 18.4 53 6.6 S 9 11 5 6 1007.2 - -
11/12:00am 28.8 31.0 19.3 56 6.2 SSW 6 11 3 6 1007.6 1007.5 -
 
Date/Time
WST
Temp
°C
App
Temp
°C
Dew
Point
Rel
Hum
%
Delta-T
°C
Wind Press
QNH
hPa
Press
MSL
hPa
Rain
since 9 am
mm
Dir
 
Spd
km/h
Gust
km/h
Spd
kts
Gust
kts
10/11:30pm 29.3 31.1 18.8 53 6.8 SSW 7 9 4 5 1008.0 - -
10/11:00pm 29.0 30.9 19.0 54 6.5 WSW 7 11 4 6 1007.9 - -
10/10:30pm 29.3 30.8 19.7 56 6.3 W 11 15 6 8 1008.0 - -
10/10:00pm 29.9 32.7 20.9 58 6.0 WSW 7 9 4 5 1007.9 - -
10/09:30pm 30.2 33.4 21.6 60 5.8 WSW 7 11 4 6 1008.0 - -
10/09:00pm 30.7 33.1 22.2 60 5.8 WSW 13 17 7 9 1007.8 1007.7 -
10/08:30pm 31.2 33.8 22.7 60 5.8 W 13 15 7 8 1007.6 - -
10/08:00pm 31.3 34.5 24.3 66 4.9 WNW 15 19 8 10 1007.4 - -
10/07:30pm 31.4 34.9 24.2 65 5.0 WNW 13 15 7 8 1007.1 - -
10/07:00pm 32.5 35.1 23.3 58 6.4 WNW 15 19 8 10 1006.8 - -
10/06:30pm 34.7 36.2 20.6 43 9.5 NW 13 17 7 9 1006.3 - -
10/06:00pm 36.2 36.4 19.4 37 11.2 N 17 20 9 11 1005.8 1005.7 -
10/05:30pm 37.6 36.9 18.3 32 12.7 N 19 22 10 12 1005.5 - -

Other Formats:

Comma delimited format used in spreadsheet applications
http://www.bom.gov.au/fwo/IDW60801/IDW60801.94312.axf

JavaScript Object Notation format (JSON) in row-major order
http://www.bom.gov.au/fwo/IDW60801/IDW60801.94312.json